sensor_id;sensor_type;location;lat;lon;timestamp;temperature;humidity
68026;SHT31;54819;48.030;14.710;2023-04-06T00:00:51;-0.77;67.79
68026;SHT31;54819;48.030;14.710;2023-04-06T00:03:18;-0.71;67.90
68026;SHT31;54819;48.030;14.710;2023-04-06T00:05:46;-0.67;67.83
68026;SHT31;54819;48.030;14.710;2023-04-06T00:08:13;-0.64;67.53
68026;SHT31;54819;48.030;14.710;2023-04-06T00:10:40;-0.61;67.21
68026;SHT31;54819;48.030;14.710;2023-04-06T00:13:07;-0.62;67.55
68026;SHT31;54819;48.030;14.710;2023-04-06T00:15:34;-0.61;66.79
68026;SHT31;54819;48.030;14.710;2023-04-06T00:18:00;-0.64;68.01
68026;SHT31;54819;48.030;14.710;2023-04-06T00:20:28;-0.69;68.40
68026;SHT31;54819;48.030;14.710;2023-04-06T00:22:55;-0.73;66.92
68026;SHT31;54819;48.030;14.710;2023-04-06T00:25:22;-0.82;67.31
68026;SHT31;54819;48.030;14.710;2023-04-06T00:27:49;-0.91;68.08
68026;SHT31;54819;48.030;14.710;2023-04-06T00:30:16;-0.98;67.13
68026;SHT31;54819;48.030;14.710;2023-04-06T00:32:42;-1.05;67.48
68026;SHT31;54819;48.030;14.710;2023-04-06T00:35:09;-1.09;67.11
68026;SHT31;54819;48.030;14.710;2023-04-06T00:37:37;-1.14;67.03
68026;SHT31;54819;48.030;14.710;2023-04-06T00:40:04;-1.21;68.88
68026;SHT31;54819;48.030;14.710;2023-04-06T00:42:31;-1.27;68.77
68026;SHT31;54819;48.030;14.710;2023-04-06T00:44:58;-1.30;69.36
68026;SHT31;54819;48.030;14.710;2023-04-06T00:47:27;-1.36;70.08
68026;SHT31;54819;48.030;14.710;2023-04-06T00:49:55;-1.41;69.36
68026;SHT31;54819;48.030;14.710;2023-04-06T00:52:23;-1.42;69.42
68026;SHT31;54819;48.030;14.710;2023-04-06T00:54:50;-1.42;70.04
68026;SHT31;54819;48.030;14.710;2023-04-06T00:57:18;-1.42;70.25
68026;SHT31;54819;48.030;14.710;2023-04-06T00:59:49;-1.39;70.32
68026;SHT31;54819;48.030;14.710;2023-04-06T01:02:18;-1.36;70.22
68026;SHT31;54819;48.030;14.710;2023-04-06T01:04:47;-1.34;70.70
68026;SHT31;54819;48.030;14.710;2023-04-06T01:07:21;-1.29;70.46
68026;SHT31;54819;48.030;14.710;2023-04-06T01:10:00;-1.26;70.27
68026;SHT31;54819;48.030;14.710;2023-04-06T01:12:29;-1.24;70.15
68026;SHT31;54819;48.030;14.710;2023-04-06T01:14:58;-1.24;69.91
68026;SHT31;54819;48.030;14.710;2023-04-06T01:17:26;-1.25;69.79
68026;SHT31;54819;48.030;14.710;2023-04-06T01:19:56;-1.28;69.91
68026;SHT31;54819;48.030;14.710;2023-04-06T01:22:26;-1.31;69.66
68026;SHT31;54819;48.030;14.710;2023-04-06T01:24:59;-1.34;69.89
68026;SHT31;54819;48.030;14.710;2023-04-06T01:27:52;-1.40;69.84
68026;SHT31;54819;48.030;14.710;2023-04-06T01:30:22;-1.43;69.92
68026;SHT31;54819;48.030;14.710;2023-04-06T01:32:52;-1.47;69.75
68026;SHT31;54819;48.030;14.710;2023-04-06T01:35:29;-1.50;69.70
68026;SHT31;54819;48.030;14.710;2023-04-06T01:38:11;-1.54;69.60
68026;SHT31;54819;48.030;14.710;2023-04-06T01:40:37;-1.58;69.70
68026;SHT31;54819;48.030;14.710;2023-04-06T01:43:04;-1.61;69.54
68026;SHT31;54819;48.030;14.710;2023-04-06T01:45:36;-1.65;69.52
68026;SHT31;54819;48.030;14.710;2023-04-06T01:48:12;-1.69;69.51
68026;SHT31;54819;48.030;14.710;2023-04-06T01:50:38;-1.72;69.59
68026;SHT31;54819;48.030;14.710;2023-04-06T01:53:06;-1.73;69.82
68026;SHT31;54819;48.030;14.710;2023-04-06T01:55:33;-1.74;70.11
68026;SHT31;54819;48.030;14.710;2023-04-06T01:58:20;-1.76;70.18
68026;SHT31;54819;48.030;14.710;2023-04-06T02:00:46;-1.79;70.14
68026;SHT31;54819;48.030;14.710;2023-04-06T02:03:14;-1.81;69.98
68026;SHT31;54819;48.030;14.710;2023-04-06T02:05:41;-1.83;70.11
68026;SHT31;54819;48.030;14.710;2023-04-06T02:08:17;-1.80;70.05
68026;SHT31;54819;48.030;14.710;2023-04-06T02:10:45;-1.78;70.00
68026;SHT31;54819;48.030;14.710;2023-04-06T02:13:19;-1.74;70.13
68026;SHT31;54819;48.030;14.710;2023-04-06T02:15:48;-1.72;70.39
68026;SHT31;54819;48.030;14.710;2023-04-06T02:18:15;-1.68;70.53
68026;SHT31;54819;48.030;14.710;2023-04-06T02:20:44;-1.63;70.70
68026;SHT31;54819;48.030;14.710;2023-04-06T02:23:12;-1.58;70.68
68026;SHT31;54819;48.030;14.710;2023-04-06T02:25:39;-1.55;70.89
68026;SHT31;54819;48.030;14.710;2023-04-06T02:28:06;-1.53;70.60
68026;SHT31;54819;48.030;14.710;2023-04-06T02:30:34;-1.54;70.68
68026;SHT31;54819;48.030;14.710;2023-04-06T02:33:01;-1.56;70.99
68026;SHT31;54819;48.030;14.710;2023-04-06T02:35:32;-1.58;70.45
68026;SHT31;54819;48.030;14.710;2023-04-06T02:37:59;-1.64;70.31
68026;SHT31;54819;48.030;14.710;2023-04-06T02:40:26;-1.73;70.46
68026;SHT31;54819;48.030;14.710;2023-04-06T02:42:54;-1.81;71.53
68026;SHT31;54819;48.030;14.710;2023-04-06T02:45:26;-1.83;70.66
68026;SHT31;54819;48.030;14.710;2023-04-06T02:47:53;-1.86;69.97
68026;SHT31;54819;48.030;14.710;2023-04-06T02:50:21;-1.92;70.63
68026;SHT31;54819;48.030;14.710;2023-04-06T02:52:53;-1.96;70.69
68026;SHT31;54819;48.030;14.710;2023-04-06T02:55:21;-2.00;70.72
68026;SHT31;54819;48.030;14.710;2023-04-06T02:57:48;-2.03;70.69
68026;SHT31;54819;48.030;14.710;2023-04-06T03:00:16;-2.06;70.74
68026;SHT31;54819;48.030;14.710;2023-04-06T03:02:43;-2.09;71.01
68026;SHT31;54819;48.030;14.710;2023-04-06T03:05:13;-2.13;70.92
68026;SHT31;54819;48.030;14.710;2023-04-06T03:07:42;-2.16;71.20
68026;SHT31;54819;48.030;14.710;2023-04-06T03:10:13;-2.19;71.50
68026;SHT31;54819;48.030;14.710;2023-04-06T03:12:40;-2.22;71.60
68026;SHT31;54819;48.030;14.710;2023-04-06T03:15:16;-2.23;71.38
68026;SHT31;54819;48.030;14.710;2023-04-06T03:17:47;-2.26;71.35
68026;SHT31;54819;48.030;14.710;2023-04-06T03:20:29;-2.26;71.44
68026;SHT31;54819;48.030;14.710;2023-04-06T03:22:56;-2.24;71.83
68026;SHT31;54819;48.030;14.710;2023-04-06T03:25:25;-2.23;72.02
68026;SHT31;54819;48.030;14.710;2023-04-06T03:27:52;-2.22;71.79
68026;SHT31;54819;48.030;14.710;2023-04-06T03:30:19;-2.19;71.96
68026;SHT31;54819;48.030;14.710;2023-04-06T03:32:46;-2.16;72.27
68026;SHT31;54819;48.030;14.710;2023-04-06T03:35:14;-2.12;72.09
68026;SHT31;54819;48.030;14.710;2023-04-06T03:37:41;-2.10;71.88
68026;SHT31;54819;48.030;14.710;2023-04-06T03:40:08;-2.09;71.72
68026;SHT31;54819;48.030;14.710;2023-04-06T03:42:36;-2.09;71.63
68026;SHT31;54819;48.030;14.710;2023-04-06T03:45:08;-2.09;71.50
68026;SHT31;54819;48.030;14.710;2023-04-06T03:47:37;-2.09;71.41
68026;SHT31;54819;48.030;14.710;2023-04-06T03:50:04;-2.10;71.39
68026;SHT31;54819;48.030;14.710;2023-04-06T03:52:33;-2.11;71.42
68026;SHT31;54819;48.030;14.710;2023-04-06T03:55:01;-2.14;71.50
68026;SHT31;54819;48.030;14.710;2023-04-06T03:57:28;-2.17;71.69
68026;SHT31;54819;48.030;14.710;2023-04-06T03:59:56;-2.19;71.82
68026;SHT31;54819;48.030;14.710;2023-04-06T04:02:25;-2.21;71.70
68026;SHT31;54819;48.030;14.710;2023-04-06T04:04:51;-2.23;71.72
68026;SHT31;54819;48.030;14.710;2023-04-06T04:07:18;-2.25;71.73
68026;SHT31;54819;48.030;14.710;2023-04-06T04:09:45;-2.28;72.33
68026;SHT31;54819;48.030;14.710;2023-04-06T04:12:13;-2.31;72.96
68026;SHT31;54819;48.030;14.710;2023-04-06T04:14:41;-2.33;72.54
68026;SHT31;54819;48.030;14.710;2023-04-06T04:17:08;-2.35;72.10
68026;SHT31;54819;48.030;14.710;2023-04-06T04:19:35;-2.36;71.97
68026;SHT31;54819;48.030;14.710;2023-04-06T04:22:01;-2.36;72.08
68026;SHT31;54819;48.030;14.710;2023-04-06T04:24:32;-2.38;71.81
68026;SHT31;54819;48.030;14.710;2023-04-06T04:26:59;-2.37;71.71
68026;SHT31;54819;48.030;14.710;2023-04-06T04:29:29;-2.35;71.98
68026;SHT31;54819;48.030;14.710;2023-04-06T04:32:00;-2.31;72.19
68026;SHT31;54819;48.030;14.710;2023-04-06T04:34:27;-2.26;72.58
68026;SHT31;54819;48.030;14.710;2023-04-06T04:36:54;-2.21;72.41
68026;SHT31;54819;48.030;14.710;2023-04-06T04:39:28;-2.16;72.42
68026;SHT31;54819;48.030;14.710;2023-04-06T04:42:00;-2.11;72.62
68026;SHT31;54819;48.030;14.710;2023-04-06T04:44:26;-2.06;72.45
68026;SHT31;54819;48.030;14.710;2023-04-06T04:46:53;-2.01;72.22
68026;SHT31;54819;48.030;14.710;2023-04-06T04:49:23;-1.93;72.12
68026;SHT31;54819;48.030;14.710;2023-04-06T04:51:50;-1.84;72.06
68026;SHT31;54819;48.030;14.710;2023-04-06T04:54:36;-1.74;71.96
68026;SHT31;54819;48.030;14.710;2023-04-06T04:57:03;-1.63;71.74
68026;SHT31;54819;48.030;14.710;2023-04-06T04:59:36;-1.53;71.67
68026;SHT31;54819;48.030;14.710;2023-04-06T05:02:11;-1.44;71.49
68026;SHT31;54819;48.030;14.710;2023-04-06T05:05:00;-1.34;71.22
68026;SHT31;54819;48.030;14.710;2023-04-06T05:07:27;-1.25;70.87
68026;SHT31;54819;48.030;14.710;2023-04-06T05:09:55;-1.15;70.60
68026;SHT31;54819;48.030;14.710;2023-04-06T05:12:23;-1.08;70.74
68026;SHT31;54819;48.030;14.710;2023-04-06T05:14:59;-1.01;70.55
68026;SHT31;54819;48.030;14.710;2023-04-06T05:17:26;-0.94;70.11
68026;SHT31;54819;48.030;14.710;2023-04-06T05:19:53;-0.88;69.98
68026;SHT31;54819;48.030;14.710;2023-04-06T05:22:22;-0.81;69.89
68026;SHT31;54819;48.030;14.710;2023-04-06T05:24:57;-0.77;69.88
68026;SHT31;54819;48.030;14.710;2023-04-06T05:27:24;-0.72;69.80
68026;SHT31;54819;48.030;14.710;2023-04-06T05:29:51;-0.65;69.37
68026;SHT31;54819;48.030;14.710;2023-04-06T05:32:18;-0.58;69.24
68026;SHT31;54819;48.030;14.710;2023-04-06T05:34:48;-0.52;69.27
68026;SHT31;54819;48.030;14.710;2023-04-06T05:37:16;-0.46;69.26
68026;SHT31;54819;48.030;14.710;2023-04-06T05:39:43;-0.41;69.04
68026;SHT31;54819;48.030;14.710;2023-04-06T05:42:10;-0.34;68.98
68026;SHT31;54819;48.030;14.710;2023-04-06T05:44:50;-0.27;69.02
68026;SHT31;54819;48.030;14.710;2023-04-06T05:47:17;-0.20;68.84
68026;SHT31;54819;48.030;14.710;2023-04-06T05:49:47;-0.13;68.69
68026;SHT31;54819;48.030;14.710;2023-04-06T05:52:20;-0.03;68.58
68026;SHT31;54819;48.030;14.710;2023-04-06T05:54:47;0.05;68.42
68026;SHT31;54819;48.030;14.710;2023-04-06T05:57:14;0.13;68.28
68026;SHT31;54819;48.030;14.710;2023-04-06T05:59:43;0.21;68.14
68026;SHT31;54819;48.030;14.710;2023-04-06T06:02:11;0.31;68.09
68026;SHT31;54819;48.030;14.710;2023-04-06T06:04:40;0.40;68.13
68026;SHT31;54819;48.030;14.710;2023-04-06T06:07:08;0.50;67.98
68026;SHT31;54819;48.030;14.710;2023-04-06T06:09:43;0.58;68.03
68026;SHT31;54819;48.030;14.710;2023-04-06T06:12:16;0.64;68.37
68026;SHT31;54819;48.030;14.710;2023-04-06T06:14:43;0.73;68.18
68026;SHT31;54819;48.030;14.710;2023-04-06T06:17:10;0.83;68.28
68026;SHT31;54819;48.030;14.710;2023-04-06T06:19:37;0.91;67.86
68026;SHT31;54819;48.030;14.710;2023-04-06T06:22:05;0.95;68.12
68026;SHT31;54819;48.030;14.710;2023-04-06T06:24:34;0.97;69.01
68026;SHT31;54819;48.030;14.710;2023-04-06T06:27:01;1.00;69.34
68026;SHT31;54819;48.030;14.710;2023-04-06T06:29:30;1.06;69.33
68026;SHT31;54819;48.030;14.710;2023-04-06T06:31:57;1.13;69.35
68026;SHT31;54819;48.030;14.710;2023-04-06T06:34:24;1.06;69.73
68026;SHT31;54819;48.030;14.710;2023-04-06T06:36:52;1.01;70.59
68026;SHT31;54819;48.030;14.710;2023-04-06T06:39:21;1.03;70.50
68026;SHT31;54819;48.030;14.710;2023-04-06T06:41:48;1.01;69.82
68026;SHT31;54819;48.030;14.710;2023-04-06T06:44:15;0.95;70.57
68026;SHT31;54819;48.030;14.710;2023-04-06T06:46:42;0.95;70.11
68026;SHT31;54819;48.030;14.710;2023-04-06T06:49:09;0.86;71.26
68026;SHT31;54819;48.030;14.710;2023-04-06T06:51:38;0.95;70.71
68026;SHT31;54819;48.030;14.710;2023-04-06T06:54:05;0.92;71.98
68026;SHT31;54819;48.030;14.710;2023-04-06T06:56:34;0.96;72.43
68026;SHT31;54819;48.030;14.710;2023-04-06T06:59:03;1.16;69.91
68026;SHT31;54819;48.030;14.710;2023-04-06T07:01:32;1.33;69.18
68026;SHT31;54819;48.030;14.710;2023-04-06T07:04:01;1.54;68.71
68026;SHT31;54819;48.030;14.710;2023-04-06T07:06:28;1.72;68.31
68026;SHT31;54819;48.030;14.710;2023-04-06T07:08:55;1.92;67.84
68026;SHT31;54819;48.030;14.710;2023-04-06T07:11:22;2.08;67.40
68026;SHT31;54819;48.030;14.710;2023-04-06T07:13:49;2.26;67.26
68026;SHT31;54819;48.030;14.710;2023-04-06T07:16:16;2.46;66.79
68026;SHT31;54819;48.030;14.710;2023-04-06T07:18:43;2.53;64.84
68026;SHT31;54819;48.030;14.710;2023-04-06T07:21:10;2.69;65.10
68026;SHT31;54819;48.030;14.710;2023-04-06T07:23:37;2.87;64.26
68026;SHT31;54819;48.030;14.710;2023-04-06T07:26:05;3.12;64.97
68026;SHT31;54819;48.030;14.710;2023-04-06T07:28:32;3.31;64.71
68026;SHT31;54819;48.030;14.710;2023-04-06T07:30:59;3.44;63.43
68026;SHT31;54819;48.030;14.710;2023-04-06T07:33:27;3.53;62.77
68026;SHT31;54819;48.030;14.710;2023-04-06T07:35:56;3.57;62.50
68026;SHT31;54819;48.030;14.710;2023-04-06T07:38:24;3.66;61.55
68026;SHT31;54819;48.030;14.710;2023-04-06T07:40:51;3.75;61.47
68026;SHT31;54819;48.030;14.710;2023-04-06T07:43:18;3.94;61.69
68026;SHT31;54819;48.030;14.710;2023-04-06T07:45:45;4.01;60.10
68026;SHT31;54819;48.030;14.710;2023-04-06T07:48:14;4.19;61.15
68026;SHT31;54819;48.030;14.710;2023-04-06T07:50:41;4.35;59.76
68026;SHT31;54819;48.030;14.710;2023-04-06T07:53:08;4.43;58.22
68026;SHT31;54819;48.030;14.710;2023-04-06T07:55:36;4.65;58.65
68026;SHT31;54819;48.030;14.710;2023-04-06T07:58:03;4.81;58.40
68026;SHT31;54819;48.030;14.710;2023-04-06T08:00:30;4.97;57.42
68026;SHT31;54819;48.030;14.710;2023-04-06T08:02:57;5.14;57.38
68026;SHT31;54819;48.030;14.710;2023-04-06T08:05:24;5.40;58.57
68026;SHT31;54819;48.030;14.710;2023-04-06T08:07:51;5.61;57.50
68026;SHT31;54819;48.030;14.710;2023-04-06T08:10:17;5.74;56.08
68026;SHT31;54819;48.030;14.710;2023-04-06T08:12:44;5.87;56.44
68026;SHT31;54819;48.030;14.710;2023-04-06T08:15:11;5.89;55.55
68026;SHT31;54819;48.030;14.710;2023-04-06T08:17:38;5.91;55.42
68026;SHT31;54819;48.030;14.710;2023-04-06T08:20:05;6.07;55.71
68026;SHT31;54819;48.030;14.710;2023-04-06T08:22:32;6.33;56.26
68026;SHT31;54819;48.030;14.710;2023-04-06T08:24:59;6.42;54.30
68026;SHT31;54819;48.030;14.710;2023-04-06T08:27:26;6.57;54.49
68026;SHT31;54819;48.030;14.710;2023-04-06T08:29:53;6.73;53.82
68026;SHT31;54819;48.030;14.710;2023-04-06T08:32:20;6.70;48.66
68026;SHT31;54819;48.030;14.710;2023-04-06T08:34:46;6.80;50.32
68026;SHT31;54819;48.030;14.710;2023-04-06T08:37:13;6.84;50.83
68026;SHT31;54819;48.030;14.710;2023-04-06T08:39:40;6.84;52.84
68026;SHT31;54819;48.030;14.710;2023-04-06T08:42:10;6.77;52.20
68026;SHT31;54819;48.030;14.710;2023-04-06T08:44:45;6.66;51.43
68026;SHT31;54819;48.030;14.710;2023-04-06T08:47:13;6.47;51.29
68026;SHT31;54819;48.030;14.710;2023-04-06T08:49:40;6.47;52.31
68026;SHT31;54819;48.030;14.710;2023-04-06T08:52:10;6.52;51.71
68026;SHT31;54819;48.030;14.710;2023-04-06T08:54:38;6.57;48.83
68026;SHT31;54819;48.030;14.710;2023-04-06T08:57:05;6.57;46.73
68026;SHT31;54819;48.030;14.710;2023-04-06T08:59:33;6.67;47.56
68026;SHT31;54819;48.030;14.710;2023-04-06T09:02:03;6.75;49.00
68026;SHT31;54819;48.030;14.710;2023-04-06T09:04:34;6.74;47.87
68026;SHT31;54819;48.030;14.710;2023-04-06T09:07:03;6.76;48.93
68026;SHT31;54819;48.030;14.710;2023-04-06T09:09:29;6.76;48.88
68026;SHT31;54819;48.030;14.710;2023-04-06T09:11:56;6.81;48.33
68026;SHT31;54819;48.030;14.710;2023-04-06T09:14:36;6.87;49.40
68026;SHT31;54819;48.030;14.710;2023-04-06T09:17:05;6.86;47.81
68026;SHT31;54819;48.030;14.710;2023-04-06T09:19:32;6.83;47.61
68026;SHT31;54819;48.030;14.710;2023-04-06T09:22:02;6.97;48.51
68026;SHT31;54819;48.030;14.710;2023-04-06T09:24:42;6.99;47.30
68026;SHT31;54819;48.030;14.710;2023-04-06T09:27:12;6.95;47.27
68026;SHT31;54819;48.030;14.710;2023-04-06T09:29:44;6.95;46.67
68026;SHT31;54819;48.030;14.710;2023-04-06T09:32:11;7.03;45.68
68026;SHT31;54819;48.030;14.710;2023-04-06T09:34:38;6.99;43.93
68026;SHT31;54819;48.030;14.710;2023-04-06T09:37:18;7.06;45.23
68026;SHT31;54819;48.030;14.710;2023-04-06T09:39:45;7.05;44.14
68026;SHT31;54819;48.030;14.710;2023-04-06T09:42:25;7.14;45.47
68026;SHT31;54819;48.030;14.710;2023-04-06T09:44:52;7.18;44.75
68026;SHT31;54819;48.030;14.710;2023-04-06T09:47:18;7.30;46.31
68026;SHT31;54819;48.030;14.710;2023-04-06T09:49:47;7.36;45.95
68026;SHT31;54819;48.030;14.710;2023-04-06T09:52:16;7.38;44.88
68026;SHT31;54819;48.030;14.710;2023-04-06T09:54:45;7.44;44.09
68026;SHT31;54819;48.030;14.710;2023-04-06T10:00:07;7.57;44.11
68026;SHT31;54819;48.030;14.710;2023-04-06T10:08:09;7.50;43.11
68026;SHT31;54819;48.030;14.710;2023-04-06T10:10:37;7.58;43.48
68026;SHT31;54819;48.030;14.710;2023-04-06T10:13:05;7.58;42.87
68026;SHT31;54819;48.030;14.710;2023-04-06T10:15:32;7.61;42.75
68026;SHT31;54819;48.030;14.710;2023-04-06T10:18:00;7.65;42.44
68026;SHT31;54819;48.030;14.710;2023-04-06T10:23:09;7.72;43.18
68026;SHT31;54819;48.030;14.710;2023-04-06T10:25:53;7.83;43.01
68026;SHT31;54819;48.030;14.710;2023-04-06T10:28:22;7.77;42.06
68026;SHT31;54819;48.030;14.710;2023-04-06T10:30:49;7.70;41.95
68026;SHT31;54819;48.030;14.710;2023-04-06T10:33:24;7.74;41.63
68026;SHT31;54819;48.030;14.710;2023-04-06T10:35:51;7.74;42.20
68026;SHT31;54819;48.030;14.710;2023-04-06T10:38:18;7.86;41.98
68026;SHT31;54819;48.030;14.710;2023-04-06T10:40:50;7.95;41.53
68026;SHT31;54819;48.030;14.710;2023-04-06T10:43:20;8.06;42.35
68026;SHT31;54819;48.030;14.710;2023-04-06T10:45:55;8.00;42.19
68026;SHT31;54819;48.030;14.710;2023-04-06T10:48:24;8.07;42.39
68026;SHT31;54819;48.030;14.710;2023-04-06T10:50:52;8.20;43.00
68026;SHT31;54819;48.030;14.710;2023-04-06T10:53:22;8.26;41.77
68026;SHT31;54819;48.030;14.710;2023-04-06T10:55:51;8.34;42.32
68026;SHT31;54819;48.030;14.710;2023-04-06T10:58:24;8.35;41.59
68026;SHT31;54819;48.030;14.710;2023-04-06T11:00:52;8.39;41.42
68026;SHT31;54819;48.030;14.710;2023-04-06T11:03:21;8.43;41.24
68026;SHT31;54819;48.030;14.710;2023-04-06T11:05:49;8.47;41.32
68026;SHT31;54819;48.030;14.710;2023-04-06T11:08:28;8.64;41.97
68026;SHT31;54819;48.030;14.710;2023-04-06T11:11:04;8.83;42.54
68026;SHT31;54819;48.030;14.710;2023-04-06T11:13:40;8.76;41.21
68026;SHT31;54819;48.030;14.710;2023-04-06T11:18:52;8.70;40.45
68026;SHT31;54819;48.030;14.710;2023-04-06T11:21:37;8.77;41.94
68026;SHT31;54819;48.030;14.710;2023-04-06T11:26:49;8.96;41.54
68026;SHT31;54819;48.030;14.710;2023-04-06T11:29:18;9.05;42.00
68026;SHT31;54819;48.030;14.710;2023-04-06T11:31:49;9.18;42.45
68026;SHT31;54819;48.030;14.710;2023-04-06T11:34:20;9.15;41.01
68026;SHT31;54819;48.030;14.710;2023-04-06T11:36:58;9.11;40.40
68026;SHT31;54819;48.030;14.710;2023-04-06T11:39:27;8.99;40.47
68026;SHT31;54819;48.030;14.710;2023-04-06T11:41:59;8.97;40.14
68026;SHT31;54819;48.030;14.710;2023-04-06T11:44:34;8.95;40.08
68026;SHT31;54819;48.030;14.710;2023-04-06T11:47:06;8.88;40.56
68026;SHT31;54819;48.030;14.710;2023-04-06T11:49:37;8.98;41.16
68026;SHT31;54819;48.030;14.710;2023-04-06T11:52:15;9.07;40.71
68026;SHT31;54819;48.030;14.710;2023-04-06T11:54:51;9.11;41.44
68026;SHT31;54819;48.030;14.710;2023-04-06T11:57:20;9.18;41.61
68026;SHT31;54819;48.030;14.710;2023-04-06T11:59:51;9.26;41.71
68026;SHT31;54819;48.030;14.710;2023-04-06T12:02:18;9.42;42.34
68026;SHT31;54819;48.030;14.710;2023-04-06T12:04:46;9.58;41.80
68026;SHT31;54819;48.030;14.710;2023-04-06T12:07:13;9.57;40.40
68026;SHT31;54819;48.030;14.710;2023-04-06T12:09:39;9.45;39.64
68026;SHT31;54819;48.030;14.710;2023-04-06T12:12:07;9.47;40.94
68026;SHT31;54819;48.030;14.710;2023-04-06T12:14:34;9.31;39.91
68026;SHT31;54819;48.030;14.710;2023-04-06T12:17:00;9.31;40.08
68026;SHT31;54819;48.030;14.710;2023-04-06T12:19:27;9.32;40.19
68026;SHT31;54819;48.030;14.710;2023-04-06T12:21:56;9.37;39.87
68026;SHT31;54819;48.030;14.710;2023-04-06T12:24:24;9.40;39.83
68026;SHT31;54819;48.030;14.710;2023-04-06T12:26:51;9.47;40.53
68026;SHT31;54819;48.030;14.710;2023-04-06T12:29:28;9.56;41.13
68026;SHT31;54819;48.030;14.710;2023-04-06T12:31:55;9.48;41.28
68026;SHT31;54819;48.030;14.710;2023-04-06T12:34:22;9.40;40.82
68026;SHT31;54819;48.030;14.710;2023-04-06T12:36:49;9.40;40.47
68026;SHT31;54819;48.030;14.710;2023-04-06T12:39:16;9.52;40.99
68026;SHT31;54819;48.030;14.710;2023-04-06T12:41:47;9.54;40.80
68026;SHT31;54819;48.030;14.710;2023-04-06T12:44:13;9.66;41.05
68026;SHT31;54819;48.030;14.710;2023-04-06T12:46:40;9.61;40.78
68026;SHT31;54819;48.030;14.710;2023-04-06T12:49:09;9.69;41.30
68026;SHT31;54819;48.030;14.710;2023-04-06T12:51:36;9.71;40.31
68026;SHT31;54819;48.030;14.710;2023-04-06T12:54:02;9.85;41.58
68026;SHT31;54819;48.030;14.710;2023-04-06T12:56:29;9.98;40.80
68026;SHT31;54819;48.030;14.710;2023-04-06T12:58:57;10.00;40.63
68026;SHT31;54819;48.030;14.710;2023-04-06T13:01:24;9.94;39.95
68026;SHT31;54819;48.030;14.710;2023-04-06T13:03:52;9.76;39.59
68026;SHT31;54819;48.030;14.710;2023-04-06T13:06:19;9.63;38.58
68026;SHT31;54819;48.030;14.710;2023-04-06T13:08:46;9.57;39.34
68026;SHT31;54819;48.030;14.710;2023-04-06T13:11:16;9.43;38.71
68026;SHT31;54819;48.030;14.710;2023-04-06T13:13:42;9.51;40.07
68026;SHT31;54819;48.030;14.710;2023-04-06T13:16:09;9.62;40.60
68026;SHT31;54819;48.030;14.710;2023-04-06T13:18:36;9.68;40.40
68026;SHT31;54819;48.030;14.710;2023-04-06T13:21:05;9.85;41.03
68026;SHT31;54819;48.030;14.710;2023-04-06T13:23:33;9.99;40.35
68026;SHT31;54819;48.030;14.710;2023-04-06T13:26:02;10.08;40.44
68026;SHT31;54819;48.030;14.710;2023-04-06T13:28:33;10.17;40.09
68026;SHT31;54819;48.030;14.710;2023-04-06T13:31:01;10.32;40.20
68026;SHT31;54819;48.030;14.710;2023-04-06T13:33:29;10.49;40.09
68026;SHT31;54819;48.030;14.710;2023-04-06T13:35:57;10.59;39.75
68026;SHT31;54819;48.030;14.710;2023-04-06T13:38:25;10.64;39.93
68026;SHT31;54819;48.030;14.710;2023-04-06T13:40:51;10.60;39.52
68026;SHT31;54819;48.030;14.710;2023-04-06T13:43:19;10.46;37.38
68026;SHT31;54819;48.030;14.710;2023-04-06T13:45:50;10.47;37.27
68026;SHT31;54819;48.030;14.710;2023-04-06T13:48:20;10.33;37.05
68026;SHT31;54819;48.030;14.710;2023-04-06T13:50:47;10.33;37.52
68026;SHT31;54819;48.030;14.710;2023-04-06T13:53:14;10.46;39.21
68026;SHT31;54819;48.030;14.710;2023-04-06T13:55:41;10.62;39.36
68026;SHT31;54819;48.030;14.710;2023-04-06T13:58:07;10.76;39.33
68026;SHT31;54819;48.030;14.710;2023-04-06T14:00:34;10.84;37.95
68026;SHT31;54819;48.030;14.710;2023-04-06T14:03:02;10.75;36.82
68026;SHT31;54819;48.030;14.710;2023-04-06T14:05:32;10.63;36.90
68026;SHT31;54819;48.030;14.710;2023-04-06T14:07:59;10.67;37.83
68026;SHT31;54819;48.030;14.710;2023-04-06T14:10:26;10.65;36.84
68026;SHT31;54819;48.030;14.710;2023-04-06T14:12:54;10.55;36.76
68026;SHT31;54819;48.030;14.710;2023-04-06T14:15:22;10.42;36.05
68026;SHT31;54819;48.030;14.710;2023-04-06T14:17:50;10.45;37.22
68026;SHT31;54819;48.030;14.710;2023-04-06T14:20:18;10.53;38.03
68026;SHT31;54819;48.030;14.710;2023-04-06T14:22:45;10.60;37.89
68026;SHT31;54819;48.030;14.710;2023-04-06T14:25:13;10.69;38.47
68026;SHT31;54819;48.030;14.710;2023-04-06T14:27:39;10.76;38.55
68026;SHT31;54819;48.030;14.710;2023-04-06T14:30:06;10.81;38.50
68026;SHT31;54819;48.030;14.710;2023-04-06T14:32:34;10.84;37.34
68026;SHT31;54819;48.030;14.710;2023-04-06T14:35:03;10.82;37.38
68026;SHT31;54819;48.030;14.710;2023-04-06T14:37:33;10.82;37.41
68026;SHT31;54819;48.030;14.710;2023-04-06T14:40:00;10.78;37.73
68026;SHT31;54819;48.030;14.710;2023-04-06T14:42:28;10.88;38.38
68026;SHT31;54819;48.030;14.710;2023-04-06T14:44:55;10.91;37.36
68026;SHT31;54819;48.030;14.710;2023-04-06T14:47:22;10.83;36.36
68026;SHT31;54819;48.030;14.710;2023-04-06T14:49:50;10.73;35.70
68026;SHT31;54819;48.030;14.710;2023-04-06T14:52:18;10.76;37.54
68026;SHT31;54819;48.030;14.710;2023-04-06T14:54:45;10.81;37.23
68026;SHT31;54819;48.030;14.710;2023-04-06T14:57:12;10.86;37.54
68026;SHT31;54819;48.030;14.710;2023-04-06T14:59:39;10.87;36.98
68026;SHT31;54819;48.030;14.710;2023-04-06T15:02:06;10.91;36.96
68026;SHT31;54819;48.030;14.710;2023-04-06T15:04:33;10.87;36.48
68026;SHT31;54819;48.030;14.710;2023-04-06T15:07:02;10.87;37.41
68026;SHT31;54819;48.030;14.710;2023-04-06T15:09:29;10.87;37.06
68026;SHT31;54819;48.030;14.710;2023-04-06T15:11:56;10.81;36.66
68026;SHT31;54819;48.030;14.710;2023-04-06T15:14:23;10.77;37.08
68026;SHT31;54819;48.030;14.710;2023-04-06T15:16:50;10.79;37.25
68026;SHT31;54819;48.030;14.710;2023-04-06T15:19:17;10.83;37.74
68026;SHT31;54819;48.030;14.710;2023-04-06T15:21:44;10.84;37.54
68026;SHT31;54819;48.030;14.710;2023-04-06T15:24:10;10.82;37.23
68026;SHT31;54819;48.030;14.710;2023-04-06T15:26:37;10.85;37.72
68026;SHT31;54819;48.030;14.710;2023-04-06T15:29:04;10.89;37.96
68026;SHT31;54819;48.030;14.710;2023-04-06T15:31:30;10.88;36.67
68026;SHT31;54819;48.030;14.710;2023-04-06T15:34:04;10.85;36.55
68026;SHT31;54819;48.030;14.710;2023-04-06T15:36:34;10.78;36.54
68026;SHT31;54819;48.030;14.710;2023-04-06T15:39:02;10.70;35.93
68026;SHT31;54819;48.030;14.710;2023-04-06T15:41:30;10.68;36.41
68026;SHT31;54819;48.030;14.710;2023-04-06T15:43:57;10.64;36.03
68026;SHT31;54819;48.030;14.710;2023-04-06T15:46:24;10.63;36.78
68026;SHT31;54819;48.030;14.710;2023-04-06T15:48:53;10.61;36.54